Time;durP1;ratioP1;P1;durP2;ratioP2;P2;SDS_P1;SDS_P2;PMS_P1;PMS_P2;Temp;Humidity;BMP_temperature;BMP_pressure;BME280_temperature;BME280_humidity;BME280_pressure;Samples;Min_cycle;Max_cycle;Signal;HPM_P1;HPM_P2
2023/04/14 00:00:19;;;;;;;8.35;3.13;;;5.50;99.90;;;;;;4882449;28;89638;-32
2023/04/14 00:02:46;;;;;;;4.68;3.25;;;5.40;99.90;;;;;;4882135;28;89241;-34
2023/04/14 00:05:12;;;;;;;3.00;2.72;;;5.30;99.90;;;;;;4912762;23;88278;-33
2023/04/14 00:07:37;;;;;;;6.35;3.45;;;5.30;99.90;;;;;;4863278;28;90266;-31
2023/04/14 00:10:03;;;;;;;4.97;3.30;;;5.20;99.90;;;;;;4862503;28;89719;-32
2023/04/14 00:12:29;;;;;;;2.90;2.55;;;5.20;99.90;;;;;;4863648;28;89794;-35
2023/04/14 00:14:55;;;;;;;5.40;3.08;;;5.20;99.90;;;;;;4863128;28;89591;-31
2023/04/14 00:17:20;;;;;;;5.18;2.40;;;5.20;99.90;;;;;;4863514;28;90325;-33
2023/04/14 00:19:46;;;;;;;3.78;3.05;;;5.10;99.90;;;;;;4862141;28;90797;-30
2023/04/14 00:22:11;;;;;;;3.92;3.17;;;5.10;99.90;;;;;;4862508;28;90471;-32
2023/04/14 00:24:42;;;;;;;6.38;3.20;;;5.00;99.90;;;;;;4863310;28;90367;-31
2023/04/14 00:27:08;;;;;;;5.78;3.13;;;5.00;99.90;;;;;;4863399;28;90868;-31
2023/04/14 00:29:34;;;;;;;15.15;2.95;;;5.00;99.90;;;;;;4862761;28;89720;-31
2023/04/14 00:31:59;;;;;;;3.03;2.72;;;5.00;99.90;;;;;;4863572;28;89387;-35
2023/04/14 00:34:25;;;;;;;3.45;2.80;;;5.00;99.90;;;;;;4863057;28;89691;-31
2023/04/14 00:36:50;;;;;;;4.32;2.97;;;5.00;99.90;;;;;;4862912;28;90127;-34
2023/04/14 00:39:16;;;;;;;5.03;2.67;;;4.90;99.90;;;;;;4863472;28;89766;-33
2023/04/14 00:41:42;;;;;;;2.88;2.28;;;4.80;99.90;;;;;;4861299;28;88456;-31
2023/04/14 00:44:08;;;;;;;3.03;2.72;;;4.80;99.90;;;;;;4862762;28;89551;-31
2023/04/14 00:46:35;;;;;;;4.10;2.88;;;4.80;99.90;;;;;;4862742;28;90862;-34
2023/04/14 00:49:00;;;;;;;4.35;2.72;;;4.80;99.90;;;;;;4862174;28;89669;-33
2023/04/14 00:51:26;;;;;;;5.57;3.45;;;4.70;99.90;;;;;;4863454;28;89714;-30
2023/04/14 00:53:53;;;;;;;8.00;3.85;;;4.70;99.90;;;;;;4862760;28;89051;-30
2023/04/14 00:56:19;;;;;;;6.30;3.10;;;4.70;99.90;;;;;;4862656;28;90387;-34
2023/04/14 00:58:45;;;;;;;4.22;3.45;;;4.70;99.90;;;;;;4862667;28;89893;-34
2023/04/14 01:01:11;;;;;;;4.50;3.55;;;4.60;99.90;;;;;;4862244;28;89623;-30
2023/04/14 01:03:37;;;;;;;4.72;3.38;;;4.60;99.90;;;;;;4861877;28;87735;-31
2023/04/14 01:06:03;;;;;;;5.15;3.05;;;4.50;99.90;;;;;;4862463;28;90083;-31
2023/04/14 01:08:29;;;;;;;4.40;3.30;;;4.40;99.90;;;;;;4861625;28;90694;-31
2023/04/14 01:11:30;;;;;;;7.40;3.33;;;4.40;99.90;;;;;;4862266;28;90085;-35
2023/04/14 01:14:17;;;;;;;6.15;3.28;;;4.40;99.90;;;;;;4860869;28;89931;-34
2023/04/14 01:16:44;;;;;;;9.95;2.70;;;4.40;99.90;;;;;;4862511;28;90704;-32
2023/04/14 01:19:45;;;;;;;4.13;2.80;;;4.40;99.90;;;;;;4865691;28;88988;-32
2023/04/14 01:22:13;;;;;;;6.63;3.75;;;4.50;99.90;;;;;;4858816;28;89807;-34
2023/04/14 01:24:39;;;;;;;3.42;2.58;;;4.60;99.90;;;;;;4865840;28;89445;-31
2023/04/14 01:27:41;;;;;;;3.08;2.78;;;4.60;99.90;;;;;;4865495;28;89986;-34
2023/04/14 01:30:34;;;;;;;8.50;3.08;;;4.60;99.90;;;;;;4857380;28;89636;-31
2023/04/14 01:33:04;;;;;;;4.32;3.08;;;4.60;99.90;;;;;;4853766;28;90111;-32
2023/04/14 01:35:37;;;;;;;3.75;2.63;;;4.60;99.90;;;;;;4864806;28;89424;-31
2023/04/14 01:38:08;;;;;;;3.15;2.80;;;4.50;99.90;;;;;;4865547;28;91889;-32
2023/04/14 01:40:36;;;;;;;2.78;2.30;;;4.50;99.90;;;;;;4865686;28;89654;-29
2023/04/14 01:43:07;;;;;;;2.67;2.47;;;4.50;99.90;;;;;;4865749;28;89509;-32
2023/04/14 01:45:43;;;;;;;3.80;2.60;;;4.50;99.90;;;;;;4865530;28;88464;-34
2023/04/14 01:48:10;;;;;;;3.20;2.13;;;4.60;99.90;;;;;;4865589;28;90056;-34
2023/04/14 01:50:36;;;;;;;5.28;2.95;;;4.60;99.90;;;;;;4865193;28;89638;-33
2023/04/14 01:53:05;;;;;;;3.28;2.60;;;4.60;99.90;;;;;;4865392;28;89560;-31
2023/04/14 01:55:34;;;;;;;3.53;2.22;;;4.60;99.90;;;;;;4865458;28;88732;-31
2023/04/14 01:58:01;;;;;;;3.38;2.47;;;4.60;99.90;;;;;;4864969;28;90195;-30
2023/04/14 02:00:27;;;;;;;2.33;2.13;;;4.60;99.90;;;;;;4852235;28;90313;-32
2023/04/14 02:02:54;;;;;;;3.55;2.65;;;4.60;99.90;;;;;;4864430;28;90284;-32
2023/04/14 02:05:21;;;;;;;7.75;2.83;;;4.60;99.90;;;;;;4865174;28;87993;-34
2023/04/14 02:07:48;;;;;;;3.67;2.45;;;4.60;99.90;;;;;;4864717;28;89544;-31
2023/04/14 02:10:20;;;;;;;4.00;3.38;;;4.70;99.90;;;;;;4864561;28;90151;-35
2023/04/14 02:12:47;;;;;;;5.85;3.05;;;4.60;99.90;;;;;;4864369;28;89764;-35
2023/04/14 02:15:16;;;;;;;6.15;2.42;;;4.60;99.90;;;;;;4865198;28;89154;-30
2023/04/14 02:17:43;;;;;;;4.45;3.67;;;4.60;99.90;;;;;;4864362;28;90073;-34
2023/04/14 02:20:11;;;;;;;3.13;2.85;;;4.60;99.90;;;;;;4865479;28;89719;-31
2023/04/14 02:22:37;;;;;;;;;;;4.50;99.90;;;;;;4865959;28;89592;-30
2023/04/14 02:25:03;;;;;;;4.95;3.78;;;4.50;99.90;;;;;;4865857;28;90258;-30
2023/04/14 02:27:45;;;;;;;5.32;3.13;;;4.40;99.90;;;;;;4864627;28;89156;-34
2023/04/14 02:30:15;;;;;;;4.35;3.03;;;4.40;99.90;;;;;;4864577;28;89477;-31
2023/04/14 02:32:46;;;;;;;5.10;3.05;;;4.50;99.90;;;;;;4864260;28;89926;-31
2023/04/14 02:35:26;;;;;;;4.25;2.75;;;4.50;99.90;;;;;;4865215;28;89416;-30
2023/04/14 02:37:57;;;;;;;4.15;3.75;;;4.50;99.90;;;;;;4865314;28;90329;-31
2023/04/14 02:40:29;;;;;;;5.18;2.97;;;4.50;99.90;;;;;;4864154;28;89664;-33
2023/04/14 02:43:12;;;;;;;11.15;3.92;;;4.60;99.90;;;;;;4864696;28;89729;-32
2023/04/14 02:45:41;;;;;;;5.32;4.32;;;4.60;99.90;;;;;;4864783;28;88987;-31
2023/04/14 02:48:11;;;;;;;3.22;2.92;;;4.70;99.90;;;;;;4864348;28;90528;-34
2023/04/14 02:50:39;;;;;;;9.15;4.32;;;4.70;99.90;;;;;;4863726;28;90921;-32
2023/04/14 02:53:06;;;;;;;;;;;4.70;99.90;;;;;;4864472;28;90535;-34
2023/04/14 02:55:32;;;;;;;3.33;2.83;;;4.70;99.90;;;;;;4866141;28;89594;-35
2023/04/14 02:57:58;;;;;;;3.35;2.67;;;4.70;99.90;;;;;;4863809;28;90413;-31
2023/04/14 03:00:26;;;;;;;6.93;4.28;;;4.70;99.90;;;;;;4864027;28;89235;-31
2023/04/14 03:02:52;;;;;;;7.22;2.90;;;4.80;99.90;;;;;;4864194;28;89894;-32
2023/04/14 03:05:18;;;;;;;5.13;3.10;;;4.80;99.90;;;;;;4851850;28;89435;-32
2023/04/14 03:07:46;;;;;;;9.35;4.57;;;4.80;99.90;;;;;;4863616;28;89373;-35
2023/04/14 03:10:12;;;;;;;6.70;3.70;;;4.80;99.90;;;;;;4862743;28;90037;-35
2023/04/14 03:12:39;;;;;;;5.57;3.63;;;4.80;99.90;;;;;;4864417;28;89589;-33
2023/04/14 03:15:08;;;;;;;4.95;3.28;;;4.80;99.90;;;;;;4863953;28;88455;-30
2023/04/14 03:17:36;;;;;;;5.70;3.88;;;4.80;99.90;;;;;;4863407;28;91620;-34
2023/04/14 03:20:02;;;;;;;6.60;3.50;;;4.80;99.90;;;;;;4862081;28;89856;-36
2023/04/14 03:22:28;;;;;;;5.05;3.60;;;4.80;99.90;;;;;;4863470;28;88988;-31
2023/04/14 03:24:57;;;;;;;3.88;3.10;;;4.80;99.90;;;;;;4864174;28;89735;-33
2023/04/14 03:27:28;;;;;;;5.68;2.97;;;4.80;99.90;;;;;;4863665;28;90196;-31
2023/04/14 03:29:59;;;;;;;4.15;2.45;;;4.70;99.90;;;;;;4862506;28;90122;-34
2023/04/14 03:32:32;;;;;;;7.03;3.08;;;4.70;99.90;;;;;;4864228;28;89653;-29
2023/04/14 03:35:00;;;;;;;15.27;3.72;;;4.70;99.90;;;;;;4863609;28;88791;-33
2023/04/14 03:37:27;;;;;;;5.18;2.95;;;4.60;99.90;;;;;;4863753;28;89185;-34
2023/04/14 03:39:57;;;;;;;5.18;3.22;;;4.60;99.90;;;;;;4862966;28;90308;-30
2023/04/14 03:42:24;;;;;;;5.50;3.33;;;4.50;99.90;;;;;;4863252;28;90848;-30
2023/04/14 03:44:55;;;;;;;5.03;3.30;;;4.50;99.90;;;;;;4862294;28;88192;-30
2023/04/14 03:47:22;;;;;;;4.63;3.72;;;4.50;99.90;;;;;;4863240;28;92312;-32
2023/04/14 03:49:50;;;;;;;5.13;2.73;;;4.50;99.90;;;;;;4864029;28;88687;-30
2023/04/14 03:52:19;;;;;;;5.35;2.75;;;4.40;99.90;;;;;;4863320;28;90097;-42
2023/04/14 03:54:45;;;;;;;3.65;2.30;;;4.40;99.90;;;;;;4863703;28;88324;-36
2023/04/14 03:57:13;;;;;;;5.28;3.58;;;4.40;99.90;;;;;;4863830;28;90519;-30
2023/04/14 03:59:40;;;;;;;7.70;3.83;;;4.30;99.90;;;;;;4863420;28;89675;-29
2023/04/14 04:02:07;;;;;;;5.55;3.15;;;4.30;99.90;;;;;;4863452;28;89512;-34
2023/04/14 04:04:35;;;;;;;3.97;2.83;;;4.20;99.90;;;;;;4863116;28;89534;-32
2023/04/14 04:07:01;;;;;;;6.50;3.07;;;4.20;99.90;;;;;;4863787;28;89633;-30
2023/04/14 04:09:28;;;;;;;3.28;2.38;;;4.10;99.90;;;;;;4862697;28;89003;-32
2023/04/14 04:11:58;;;;;;;2.93;2.63;;;4.10;99.90;;;;;;4862703;28;89524;-33
2023/04/14 04:14:26;;;;;;;4.32;3.13;;;4.10;99.90;;;;;;4863435;28;89651;-35
2023/04/14 04:16:53;;;;;;;4.22;3.35;;;4.10;99.90;;;;;;4863220;28;89802;-34
2023/04/14 04:19:21;;;;;;;4.40;3.07;;;4.10;99.90;;;;;;4863895;28;89906;-31
2023/04/14 04:21:50;;;;;;;3.20;2.60;;;4.00;99.90;;;;;;4862747;28;89565;-31
2023/04/14 04:24:18;;;;;;;4.55;2.72;;;3.70;99.90;;;;;;4862647;28;89683;-32
2023/04/14 04:26:44;;;;;;;4.28;2.63;;;3.70;99.90;;;;;;4862636;28;90261;-30
2023/04/14 04:29:11;;;;;;;2.67;2.22;;;3.70;99.90;;;;;;4862892;28;90750;-33
2023/04/14 04:31:38;;;;;;;3.53;2.67;;;3.70;99.90;;;;;;4863594;28;90216;-33
2023/04/14 04:34:05;;;;;;;9.75;3.63;;;3.70;99.90;;;;;;4862536;28;87972;-29
2023/04/14 04:36:31;;;;;;;3.63;2.60;;;3.80;99.90;;;;;;4863570;28;90831;-34
2023/04/14 04:38:57;;;;;;;5.82;3.47;;;3.70;99.90;;;;;;4863391;28;91761;-30
2023/04/14 04:41:25;;;;;;;4.70;3.95;;;3.70;99.90;;;;;;4863017;28;89517;-30
2023/04/14 04:43:50;;;;;;;12.33;3.87;;;3.80;99.90;;;;;;4863225;28;87860;-33
2023/04/14 04:46:40;;;;;;;5.00;3.17;;;3.70;99.90;;;;;;4862776;28;90402;-30
2023/04/14 04:49:06;;;;;;;5.43;2.83;;;3.80;99.90;;;;;;4863551;28;90216;-32
2023/04/14 04:51:31;;;;;;;6.07;4.65;;;3.80;99.90;;;;;;4862279;28;89680;-33
2023/04/14 04:53:57;;;;;;;6.25;3.80;;;3.80;99.90;;;;;;4865771;28;89348;-32
2023/04/14 04:56:22;;;;;;;4.95;2.95;;;3.90;99.90;;;;;;4865833;28;92132;-32
2023/04/14 04:58:48;;;;;;;4.20;3.80;;;3.90;99.90;;;;;;4865965;28;90002;-31
2023/04/14 05:01:15;;;;;;;6.18;3.70;;;4.00;99.90;;;;;;4866092;28;90862;-33
2023/04/14 05:03:41;;;;;;;6.13;3.78;;;3.90;99.90;;;;;;4866771;28;88172;-34
2023/04/14 05:06:07;;;;;;;6.35;4.20;;;4.00;99.90;;;;;;4866436;28;90101;-32
2023/04/14 05:08:32;;;;;;;6.38;5.30;;;4.10;99.90;;;;;;4865812;28;91574;-32
2023/04/14 05:10:58;;;;;;;9.30;5.18;;;4.20;99.90;;;;;;4865489;28;89128;-35
2023/04/14 05:13:24;;;;;;;4.97;4.20;;;4.20;99.90;;;;;;4866164;28;87724;-30
2023/04/14 05:15:50;;;;;;;6.88;4.70;;;4.30;99.90;;;;;;4865641;28;90360;-30
2023/04/14 05:18:16;;;;;;;7.72;4.57;;;4.40;99.90;;;;;;4865745;28;90554;-29
2023/04/14 05:20:42;;;;;;;5.00;4.60;;;4.40;99.90;;;;;;4865376;28;90600;-32
2023/04/14 05:23:07;;;;;;;9.35;5.30;;;4.50;99.90;;;;;;4865357;28;90180;-36
2023/04/14 05:25:33;;;;;;;13.50;5.40;;;4.50;99.90;;;;;;4866133;28;90633;-31
2023/04/14 05:27:58;;;;;;;6.20;4.90;;;4.60;99.90;;;;;;4865199;28;89811;-32
2023/04/14 05:30:25;;;;;;;6.35;4.32;;;4.60;99.90;;;;;;4866307;28;89696;-30
2023/04/14 05:32:50;;;;;;;8.55;4.25;;;4.70;99.90;;;;;;4864649;28;87932;-30
2023/04/14 05:35:16;;;;;;;8.05;5.32;;;4.80;99.90;;;;;;4866346;28;90543;-31
2023/04/14 05:37:42;;;;;;;6.93;4.40;;;4.80;99.90;;;;;;4865130;28;90265;-31
2023/04/14 05:40:08;;;;;;;6.60;5.85;;;4.90;99.90;;;;;;4866079;28;89628;-32
2023/04/14 05:42:33;;;;;;;8.73;5.07;;;5.00;99.90;;;;;;4865791;28;89154;-33
2023/04/14 05:44:59;;;;;;;10.40;5.47;;;5.10;99.90;;;;;;4864790;28;89528;-31
2023/04/14 05:47:24;;;;;;;6.35;4.95;;;5.20;99.90;;;;;;4865273;28;89255;-30
2023/04/14 05:49:50;;;;;;;7.53;4.68;;;5.30;99.90;;;;;;4865661;28;89124;-31
2023/04/14 05:52:15;;;;;;;6.25;4.50;;;5.30;99.90;;;;;;4865793;28;90458;-32
2023/04/14 05:54:41;;;;;;;4.85;4.00;;;5.40;99.90;;;;;;4865610;28;90200;-32
2023/04/14 05:57:07;;;;;;;9.30;5.00;;;5.40;99.90;;;;;;4864652;28;89937;-31
2023/04/14 05:59:32;;;;;;;9.43;4.63;;;5.40;99.90;;;;;;4866149;28;89178;-32
2023/04/14 06:01:58;;;;;;;8.63;4.22;;;5.50;99.90;;;;;;4864599;28;87968;-33
2023/04/14 06:04:24;;;;;;;7.53;5.25;;;5.50;99.90;;;;;;4864784;28;90412;-32
2023/04/14 06:06:50;;;;;;;7.60;4.60;;;5.60;99.90;;;;;;4864299;28;90806;-31
2023/04/14 06:09:15;;;;;;;8.25;4.07;;;5.60;99.90;;;;;;4865260;28;90466;-35
2023/04/14 06:11:41;;;;;;;9.23;5.55;;;5.70;99.90;;;;;;4865429;28;89376;-30
2023/04/14 06:14:06;;;;;;;8.13;4.22;;;5.70;99.90;;;;;;4864688;28;90217;-30
2023/04/14 06:16:32;;;;;;;9.23;5.07;;;5.80;99.90;;;;;;4865173;28;89445;-31
2023/04/14 06:18:58;;;;;;;7.43;4.68;;;5.80;99.90;;;;;;4864462;28;89298;-35
2023/04/14 06:21:23;;;;;;;8.27;5.25;;;5.80;99.90;;;;;;4865049;28;89304;-34
2023/04/14 06:23:49;;;;;;;7.22;5.25;;;5.80;99.90;;;;;;4864666;28;90689;-33
2023/04/14 06:26:15;;;;;;;8.20;5.22;;;5.90;99.90;;;;;;4864802;28;89630;-34
2023/04/14 06:28:40;;;;;;;7.72;4.85;;;5.90;99.90;;;;;;4864807;28;89286;-34
2023/04/14 06:31:06;;;;;;;7.15;4.55;;;6.00;99.90;;;;;;4864046;28;89632;-33
2023/04/14 06:33:32;;;;;;;12.20;5.65;;;6.00;99.90;;;;;;4865057;28;90372;-30
2023/04/14 06:35:57;;;;;;;7.50;4.13;;;6.10;99.90;;;;;;4864695;28;91520;-32
2023/04/14 06:38:24;;;;;;;11.13;6.32;;;6.20;99.90;;;;;;4863957;28;89359;-32
2023/04/14 06:40:50;;;;;;;5.30;3.75;;;6.30;99.90;;;;;;4860053;28;89056;-30
2023/04/14 06:43:16;;;;;;;7.60;4.13;;;6.60;99.90;;;;;;4864432;28;90415;-35
2023/04/14 06:45:42;;;;;;;11.05;4.75;;;6.80;99.90;;;;;;4864810;28;90010;-34
2023/04/14 06:48:08;;;;;;;8.95;3.28;;;7.00;99.90;;;;;;4864662;28;89726;-30
2023/04/14 06:50:33;;;;;;;5.10;4.30;;;7.20;99.90;;;;;;4864036;28;89509;-32
2023/04/14 06:52:59;;;;;;;5.55;4.22;;;7.50;99.90;;;;;;4864100;28;90701;-34
2023/04/14 06:55:25;;;;;;;4.35;3.95;;;7.80;99.90;;;;;;4863720;28;89395;-34
2023/04/14 06:57:50;;;;;;;5.28;3.80;;;8.10;99.90;;;;;;4864316;28;89918;-33
2023/04/14 07:00:16;;;;;;;4.28;3.88;;;8.40;99.90;;;;;;4864672;28;89685;-32
2023/04/14 07:02:42;;;;;;;5.60;4.30;;;8.70;99.90;;;;;;4863700;28;90234;-30
2023/04/14 07:05:08;;;;;;;5.45;3.78;;;8.80;99.90;;;;;;4864140;28;89618;-31
2023/04/14 07:07:35;;;;;;;7.38;4.22;;;9.00;99.90;;;;;;4864032;28;89685;-31
2023/04/14 07:10:00;;;;;;;7.88;4.38;;;9.10;99.90;;;;;;4863908;28;90179;-30
2023/04/14 07:12:26;;;;;;;5.07;3.50;;;9.30;99.90;;;;;;4864586;28;90369;-30
2023/04/14 07:14:51;;;;;;;5.07;3.42;;;9.50;99.90;;;;;;4865433;28;89309;-34
2023/04/14 07:17:18;;;;;;;6.82;3.75;;;9.60;99.90;;;;;;4861060;28;88561;-30
2023/04/14 07:19:44;;;;;;;5.63;3.17;;;9.80;99.90;;;;;;4861133;28;90269;-32
2023/04/14 07:22:10;;;;;;;13.02;3.90;;;10.00;99.90;;;;;;4861980;28;89937;-32
2023/04/14 07:24:36;;;;;;;5.97;3.58;;;10.30;99.90;;;;;;4861789;28;89955;-31
2023/04/14 07:27:02;;;;;;;5.75;4.30;;;10.60;99.90;;;;;;4861106;28;89423;-30
2023/04/14 07:29:28;;;;;;;9.15;3.15;;;10.70;99.90;;;;;;4863850;28;87982;-31
2023/04/14 07:31:54;;;;;;;5.13;3.67;;;11.00;99.90;;;;;;4863495;28;89248;-32
2023/04/14 07:34:20;;;;;;;7.75;3.50;;;11.20;99.90;;;;;;4863369;28;88480;-34
2023/04/14 07:36:45;;;;;;;3.63;3.30;;;11.40;99.90;;;;;;4864329;28;91124;-32
2023/04/14 07:39:11;;;;;;;6.25;2.67;;;11.70;99.90;;;;;;4863217;28;89380;-31
2023/04/14 07:41:36;;;;;;;9.63;4.20;;;12.00;99.90;;;;;;4863590;28;89801;-34
2023/04/14 07:44:02;;;;;;;8.05;3.72;;;12.10;99.90;;;;;;4862489;28;90337;-32
2023/04/14 07:46:28;;;;;;;5.30;2.60;;;12.20;99.90;;;;;;4864103;28;90033;-31
2023/04/14 07:48:53;;;;;;;4.07;3.47;;;12.50;99.90;;;;;;4862122;28;88885;-32
2023/04/14 07:51:19;;;;;;;6.32;4.30;;;12.70;99.90;;;;;;4860519;28;90380;-31
2023/04/14 07:53:45;;;;;;;5.78;3.72;;;12.60;99.90;;;;;;4861197;28;89674;-31
2023/04/14 07:56:11;;;;;;;14.07;4.20;;;12.90;99.90;;;;;;4861475;28;89825;-30
2023/04/14 07:58:37;;;;;;;5.82;3.22;;;13.10;99.90;;;;;;4861924;28;89437;-32
2023/04/14 08:01:03;;;;;;;4.80;3.97;;;13.30;99.90;;;;;;4861287;28;90885;-33
2023/04/14 08:03:30;;;;;;;9.07;4.50;;;13.50;99.90;;;;;;4861769;28;89702;-29
2023/04/14 08:05:56;;;;;;;11.15;3.65;;;13.80;99.90;;;;;;4862702;28;89754;-31
2023/04/14 08:08:22;;;;;;;11.35;2.42;;;13.90;99.90;;;;;;4862096;28;89821;-33
2023/04/14 08:10:48;;;;;;;3.70;2.80;;;13.40;75.90;;;;;;4862814;28;89296;-30
2023/04/14 08:13:14;;;;;;;10.05;4.68;;;13.10;84.20;;;;;;4863788;28;89590;-30
2023/04/14 08:15:40;;;;;;;11.32;3.63;;;13.40;94.80;;;;;;4863836;28;89889;-32
2023/04/14 08:18:06;;;;;;;3.75;3.08;;;13.20;90.40;;;;;;4862924;28;88146;-32
2023/04/14 08:20:34;;;;;;;4.68;2.95;;;13.60;94.20;;;;;;4863220;28;91115;-30
2023/04/14 08:23:00;;;;;;;7.03;3.35;;;13.70;89.50;;;;;;4861913;28;90025;-30
2023/04/14 08:25:26;;;;;;;3.60;2.50;;;13.90;81.70;;;;;;4863408;28;89524;-29
2023/04/14 08:27:51;;;;;;;3.03;2.72;;;13.90;84.00;;;;;;4862679;28;88996;-30
2023/04/14 08:30:17;;;;;;;11.85;3.88;;;13.60;78.20;;;;;;4862325;28;90544;-35
2023/04/14 08:32:42;;;;;;;4.40;2.70;;;13.50;78.80;;;;;;4862134;28;90235;-31
2023/04/14 08:35:08;;;;;;;3.60;2.03;;;13.60;85.30;;;;;;4862348;28;90604;-33
2023/04/14 08:37:34;;;;;;;3.22;2.47;;;13.40;76.70;;;;;;4863332;28;88808;-31
2023/04/14 08:40:00;;;;;;;4.20;2.50;;;13.30;78.60;;;;;;4862159;28;90459;-33
2023/04/14 08:42:26;;;;;;;9.00;3.55;;;13.30;84.00;;;;;;4862447;28;89891;-31
2023/04/14 08:44:52;;;;;;;10.25;4.10;;;13.30;90.70;;;;;;4862198;28;90408;-30
2023/04/14 08:47:22;;;;;;;3.38;2.58;;;13.50;82.50;;;;;;4862167;28;89803;-30
2023/04/14 08:49:54;;;;;;;10.95;2.03;;;13.60;77.00;;;;;;4862056;28;89192;-32
2023/04/14 08:52:23;;;;;;;3.70;2.67;;;13.10;71.60;;;;;;4862297;28;90066;-30
2023/04/14 08:54:50;;;;;;;9.40;3.20;;;13.50;72.90;;;;;;4861851;28;89877;-32
2023/04/14 08:57:20;;;;;;;23.00;3.65;;;13.40;73.00;;;;;;4862550;28;90614;-32
2023/04/14 08:59:46;;;;;;;6.32;3.92;;;13.50;74.90;;;;;;4861714;28;90357;-30
2023/04/14 09:02:12;;;;;;;8.82;3.58;;;13.40;75.90;;;;;;4863328;28;90069;-33
2023/04/14 09:04:39;;;;;;;11.82;3.05;;;13.50;74.50;;;;;;4861918;28;90144;-33
2023/04/14 09:07:04;;;;;;;6.60;3.78;;;13.60;73.60;;;;;;4861979;28;88983;-31
2023/04/14 09:09:30;;;;;;;9.73;3.22;;;13.50;71.70;;;;;;4862467;28;90605;-34
2023/04/14 09:11:57;;;;;;;7.47;3.53;;;13.70;73.30;;;;;;4861938;28;89863;-33
2023/04/14 09:14:22;;;;;;;8.05;2.90;;;13.70;70.90;;;;;;4862185;28;90051;-34
2023/04/14 09:16:52;;;;;;;4.20;3.20;;;13.90;72.70;;;;;;4862216;28;88928;-33
2023/04/14 09:19:21;;;;;;;6.00;3.35;;;14.00;72.30;;;;;;4862227;28;90548;-32
2023/04/14 09:21:47;;;;;;;4.13;2.35;;;14.30;72.80;;;;;;4861299;28;90818;-33
2023/04/14 09:24:16;;;;;;;5.97;3.05;;;14.10;70.20;;;;;;4861933;28;90291;-34
2023/04/14 09:26:42;;;;;;;3.13;2.33;;;14.20;71.50;;;;;;4862613;28;88693;-34
2023/04/14 09:29:08;;;;;;;3.83;2.20;;;14.30;69.60;;;;;;4862012;28;89956;-31
2023/04/14 09:31:35;;;;;;;6.30;3.38;;;14.30;70.90;;;;;;4862063;28;89328;-31
2023/04/14 09:34:00;;;;;;;6.68;3.00;;;14.30;71.90;;;;;;4861709;28;89680;-34
2023/04/14 09:36:27;;;;;;;3.50;3.03;;;14.40;71.90;;;;;;4862003;28;87898;-32
2023/04/14 09:38:53;;;;;;;6.25;2.53;;;14.40;73.10;;;;;;4862768;28;90161;-34
2023/04/14 09:41:21;;;;;;;12.82;3.22;;;14.70;71.00;;;;;;4865406;28;87735;-30
2023/04/14 09:43:48;;;;;;;5.03;2.63;;;14.90;71.20;;;;;;4864908;28;90175;-31
2023/04/14 09:46:14;;;;;;;4.45;3.08;;;15.20;72.60;;;;;;4865350;28;89842;-31
2023/04/14 09:48:50;;;;;;;6.85;3.08;;;15.30;71.60;;;;;;4864605;28;90893;-30
2023/04/14 09:51:15;;;;;;;11.05;4.10;;;15.50;70.10;;;;;;4866071;28;90245;-30
2023/04/14 09:53:41;;;;;;;5.65;4.18;;;15.60;67.30;;;;;;4864016;28;90716;-31
2023/04/14 09:56:09;;;;;;;6.85;3.20;;;15.30;67.10;;;;;;4865593;28;88523;-31
2023/04/14 09:58:37;;;;;;;8.75;4.53;;;15.10;68.10;;;;;;4865191;28;89763;-33
2023/04/14 10:01:26;;;;;;;6.15;4.18;;;14.80;68.70;;;;;;4865104;28;89810;-34
2023/04/14 10:03:52;;;;;;;6.97;2.85;;;14.60;70.30;;;;;;4865045;28;90854;-29
2023/04/14 10:06:22;;;;;;;6.00;3.53;;;15.00;75.50;;;;;;4864760;28;88832;-31
2023/04/14 10:08:51;;;;;;;7.03;3.90;;;15.20;71.70;;;;;;4863797;28;90171;-31
2023/04/14 10:11:20;;;;;;;7.75;4.25;;;15.50;70.20;;;;;;4863529;28;90874;-35
2023/04/14 10:13:51;;;;;;;7.43;4.10;;;14.70;71.10;;;;;;4864744;28;90352;-34
2023/04/14 10:16:17;;;;;;;4.85;3.50;;;15.20;75.10;;;;;;4864716;28;89863;-32
2023/04/14 10:18:43;;;;;;;6.57;4.03;;;15.60;73.40;;;;;;4865099;28;91446;-32
2023/04/14 10:21:10;;;;;;;5.65;3.60;;;15.40;71.30;;;;;;4864483;28;90029;-34
2023/04/14 10:23:38;;;;;;;9.20;4.20;;;15.20;72.70;;;;;;4864191;28;89558;-31
2023/04/14 10:26:05;;;;;;;6.60;4.38;;;15.10;69.30;;;;;;4864928;28;88800;-35
2023/04/14 10:28:33;;;;;;;13.63;4.60;;;15.30;73.50;;;;;;4865274;28;89802;-31
2023/04/14 10:31:00;;;;;;;9.05;5.10;;;15.40;70.00;;;;;;4864356;28;88667;-31
2023/04/14 10:33:26;;;;;;;6.20;3.58;;;15.30;68.20;;;;;;4864630;28;89643;-34
2023/04/14 10:35:59;;;;;;;14.38;5.20;;;15.40;71.10;;;;;;4864163;28;88135;-31
2023/04/14 10:38:45;;;;;;;7.40;4.80;;;15.50;72.10;;;;;;4864460;28;90575;-33
2023/04/14 10:41:11;;;;;;;8.07;3.40;;;15.60;71.50;;;;;;4859245;28;89175;-32
2023/04/14 10:43:38;;;;;;;8.15;4.00;;;15.50;70.20;;;;;;4860016;28;87955;-33
2023/04/14 10:46:06;;;;;;;4.38;3.47;;;15.70;69.50;;;;;;4864217;28;88653;-31
2023/04/14 10:48:35;;;;;;;5.63;4.05;;;15.90;67.30;;;;;;4864468;28;89671;-31
2023/04/14 10:51:03;;;;;;;5.07;2.92;;;15.90;69.90;;;;;;4862492;28;89025;-35
2023/04/14 10:53:36;;;;;;;;;;;16.10;70.00;;;;;;4865591;28;89465;-35
2023/04/14 10:56:02;;;;;;;5.32;4.18;;;16.30;70.60;;;;;;4864982;28;88240;-34
2023/04/14 10:58:28;;;;;;;6.25;3.60;;;15.90;68.00;;;;;;4864143;28;90438;-34
2023/04/14 11:00:56;;;;;;;11.20;4.22;;;16.20;70.30;;;;;;4863533;28;91449;-33
2023/04/14 11:03:22;;;;;;;7.57;4.00;;;15.80;67.60;;;;;;4864084;28;90632;-33
2023/04/14 11:05:49;;;;;;;4.53;3.92;;;16.10;69.60;;;;;;4863640;28;90293;-35
2023/04/14 11:08:34;;;;;;;7.20;4.07;;;16.20;69.50;;;;;;4864854;28;89023;-33
2023/04/14 11:11:05;;;;;;;8.70;4.45;;;16.00;70.20;;;;;;4859810;28;88331;-31
2023/04/14 11:13:33;;;;;;;6.75;4.80;;;15.60;69.10;;;;;;4863373;28;89279;-32
2023/04/14 11:16:08;;;;;;;10.50;5.20;;;15.40;69.30;;;;;;4858230;28;89162;-30
2023/04/14 11:18:37;;;;;;;13.10;4.50;;;15.40;74.20;;;;;;4864919;28;90395;-34
2023/04/14 11:21:11;;;;;;;11.82;4.03;;;15.20;69.40;;;;;;4863871;28;89370;-32
2023/04/14 11:23:37;;;;;;;10.55;3.33;;;15.10;66.00;;;;;;4863885;28;89603;-32
2023/04/14 11:26:08;;;;;;;4.68;2.92;;;15.30;66.60;;;;;;4863398;28;89148;-30
2023/04/14 11:28:39;;;;;;;4.78;2.88;;;15.00;64.80;;;;;;4863590;28;90530;-31
2023/04/14 11:31:07;;;;;;;2.20;1.77;;;14.80;63.50;;;;;;4848761;28;89669;-30
2023/04/14 11:33:38;;;;;;;5.88;3.95;;;15.00;65.70;;;;;;4855834;28;89186;-32
2023/04/14 11:36:05;;;;;;;3.00;2.60;;;15.20;66.10;;;;;;4862888;28;88333;-32
2023/04/14 11:38:39;;;;;;;4.50;3.15;;;15.20;66.10;;;;;;4864332;28;88918;-35
2023/04/14 11:41:05;;;;;;;7.00;3.63;;;15.00;63.50;;;;;;4864182;28;89946;-32
2023/04/14 11:43:31;;;;;;;9.48;4.63;;;14.90;63.30;;;;;;4864086;28;89617;-35
2023/04/14 11:45:59;;;;;;;6.88;4.75;;;14.80;67.20;;;;;;4863847;28;89087;-33
2023/04/14 11:48:27;;;;;;;7.63;3.65;;;14.90;68.90;;;;;;4852611;28;90072;-33
2023/04/14 11:50:54;;;;;;;9.75;4.03;;;14.80;68.70;;;;;;4859841;28;90510;-34
2023/04/14 11:53:20;;;;;;;7.82;4.18;;;14.80;68.60;;;;;;4861324;28;91127;-32
2023/04/14 11:55:50;;;;;;;6.53;3.72;;;14.80;64.10;;;;;;4861446;28;90149;-32
2023/04/14 11:58:23;;;;;;;7.05;3.95;;;14.60;65.30;;;;;;4852499;28;89822;-32
2023/04/14 12:00:49;;;;;;;7.50;3.00;;;14.50;66.40;;;;;;4858300;28;90907;-35
2023/04/14 12:03:15;;;;;;;5.53;3.70;;;14.60;66.10;;;;;;4861240;28;90586;-32
2023/04/14 12:05:40;;;;;;;10.05;4.53;;;14.80;67.20;;;;;;4896432;23;88464;-31
2023/04/14 12:08:07;;;;;;;9.23;4.13;;;14.70;64.30;;;;;;4870532;28;90221;-35
2023/04/14 12:10:37;;;;;;;10.55;5.22;;;14.70;66.30;;;;;;4869907;28;89725;-31
2023/04/14 12:13:03;;;;;;;7.50;4.40;;;14.70;66.20;;;;;;4868952;28;91468;-31
2023/04/14 12:15:37;;;;;;;5.25;4.50;;;14.50;66.70;;;;;;4869700;28;89801;-33
2023/04/14 12:18:08;;;;;;;9.07;5.63;;;14.60;67.00;;;;;;4868086;28;90787;-31
2023/04/14 12:21:00;;;;;;;7.18;4.90;;;14.60;67.60;;;;;;4871657;28;89816;-31
2023/04/14 12:23:26;;;;;;;9.63;5.72;;;14.60;67.20;;;;;;4862718;28;89643;-36
2023/04/14 12:25:52;;;;;;;8.40;4.78;;;14.50;68.00;;;;;;4860946;28;89651;-31
2023/04/14 12:28:24;;;;;;;5.63;4.80;;;14.50;67.50;;;;;;4860232;28;90540;-31
2023/04/14 12:30:51;;;;;;;6.97;5.03;;;14.50;68.00;;;;;;4860231;28;91296;-32
2023/04/14 12:33:20;;;;;;;9.52;5.47;;;14.40;70.00;;;;;;4860757;28;89132;-33
2023/04/14 12:35:49;;;;;;;6.80;5.13;;;14.40;70.70;;;;;;4860591;28;88601;-34
2023/04/14 12:38:15;;;;;;;12.25;4.68;;;14.70;71.40;;;;;;4870188;28;89294;-30
2023/04/14 12:40:43;;;;;;;14.98;6.57;;;15.00;71.60;;;;;;4861994;28;90420;-31
2023/04/14 12:43:09;;;;;;;6.75;4.57;;;14.80;66.10;;;;;;4861126;28;90693;-31
2023/04/14 12:45:46;;;;;;;7.80;5.00;;;14.90;67.80;;;;;;4860839;28;89556;-31
2023/04/14 12:48:12;;;;;;;8.27;5.30;;;15.10;69.70;;;;;;4871847;28;90506;-33
2023/04/14 12:50:38;;;;;;;9.48;5.65;;;15.00;67.20;;;;;;4878527;28;89854;-32
2023/04/14 12:53:24;;;;;;;6.38;5.35;;;14.80;66.80;;;;;;4878224;28;89582;-33
2023/04/14 12:56:13;;;;;;;10.38;4.95;;;14.50;66.00;;;;;;4857075;28;88754;-30